sensor_id;sensor_type;location;lat;lon;timestamp;P1;durP1;ratioP1;P2;durP2;ratioP2
62790;SDS011;48830;53.426;10.300;2022-10-04T00:00:57;10.07;;;2.70;;
62790;SDS011;48830;53.426;10.300;2022-10-04T00:03:27;10.85;;;2.58;;
62790;SDS011;48830;53.426;10.300;2022-10-04T00:06:00;7.63;;;2.40;;
62790;SDS011;48830;53.426;10.300;2022-10-04T00:13:50;6.43;;;2.75;;
62790;SDS011;48830;53.426;10.300;2022-10-04T00:16:21;7.13;;;2.35;;
62790;SDS011;48830;53.426;10.300;2022-10-04T00:19:01;5.68;;;1.98;;
62790;SDS011;48830;53.426;10.300;2022-10-04T00:24:27;8.50;;;2.30;;
62790;SDS011;48830;53.426;10.300;2022-10-04T00:27:08;7.80;;;2.17;;
62790;SDS011;48830;53.426;10.300;2022-10-04T00:29:35;4.20;;;1.95;;
62790;SDS011;48830;53.426;10.300;2022-10-04T00:32:22;6.93;;;2.22;;
62790;SDS011;48830;53.426;10.300;2022-10-04T00:34:51;8.52;;;2.13;;
62790;SDS011;48830;53.426;10.300;2022-10-04T00:37:17;5.65;;;2.33;;
62790;SDS011;48830;53.426;10.300;2022-10-04T00:39:44;6.25;;;2.15;;
62790;SDS011;48830;53.426;10.300;2022-10-04T00:42:36;4.30;;;2.03;;
62790;SDS011;48830;53.426;10.300;2022-10-04T00:45:15;6.65;;;2.30;;
62790;SDS011;48830;53.426;10.300;2022-10-04T00:52:58;6.93;;;2.20;;
62790;SDS011;48830;53.426;10.300;2022-10-04T00:55:29;6.43;;;2.17;;
62790;SDS011;48830;53.426;10.300;2022-10-04T00:58:31;6.65;;;1.98;;
62790;SDS011;48830;53.426;10.300;2022-10-04T01:01:04;4.47;;;2.22;;
62790;SDS011;48830;53.426;10.300;2022-10-04T01:03:35;4.95;;;2.15;;
62790;SDS011;48830;53.426;10.300;2022-10-04T01:06:04;6.65;;;1.95;;
62790;SDS011;48830;53.426;10.300;2022-10-04T01:08:52;5.05;;;2.10;;
62790;SDS011;48830;53.426;10.300;2022-10-04T01:11:27;7.55;;;2.20;;
62790;SDS011;48830;53.426;10.300;2022-10-04T01:14:00;4.50;;;2.00;;
62790;SDS011;48830;53.426;10.300;2022-10-04T01:16:57;6.05;;;2.25;;
62790;SDS011;48830;53.426;10.300;2022-10-04T01:21:58;6.03;;;1.98;;
62790;SDS011;48830;53.426;10.300;2022-10-04T01:24:32;6.07;;;1.70;;
62790;SDS011;48830;53.426;10.300;2022-10-04T01:26:59;6.60;;;2.10;;
62790;SDS011;48830;53.426;10.300;2022-10-04T01:29:26;6.60;;;2.20;;
62790;SDS011;48830;53.426;10.300;2022-10-04T01:31:56;5.10;;;2.05;;
62790;SDS011;48830;53.426;10.300;2022-10-04T01:34:24;4.38;;;1.60;;
62790;SDS011;48830;53.426;10.300;2022-10-04T01:36:56;7.68;;;1.80;;
62790;SDS011;48830;53.426;10.300;2022-10-04T01:39:25;4.55;;;2.08;;
62790;SDS011;48830;53.426;10.300;2022-10-04T01:47:05;5.05;;;2.13;;
62790;SDS011;48830;53.426;10.300;2022-10-04T01:49:37;4.78;;;1.80;;
62790;SDS011;48830;53.426;10.300;2022-10-04T01:52:08;4.90;;;1.70;;
62790;SDS011;48830;53.426;10.300;2022-10-04T01:54:42;6.47;;;1.90;;
62790;SDS011;48830;53.426;10.300;2022-10-04T01:57:14;4.07;;;1.67;;
62790;SDS011;48830;53.426;10.300;2022-10-04T01:59:45;2.50;;;1.50;;
62790;SDS011;48830;53.426;10.300;2022-10-04T02:02:34;5.87;;;1.97;;
62790;SDS011;48830;53.426;10.300;2022-10-04T02:05:05;4.03;;;1.73;;
62790;SDS011;48830;53.426;10.300;2022-10-04T02:07:35;5.93;;;1.90;;
62790;SDS011;48830;53.426;10.300;2022-10-04T02:10:05;4.53;;;2.08;;
62790;SDS011;48830;53.426;10.300;2022-10-04T02:12:34;7.63;;;2.50;;
62790;SDS011;48830;53.426;10.300;2022-10-04T02:15:05;5.88;;;1.88;;
62790;SDS011;48830;53.426;10.300;2022-10-04T02:17:33;5.68;;;2.10;;
62790;SDS011;48830;53.426;10.300;2022-10-04T02:20:08;6.38;;;2.38;;
62790;SDS011;48830;53.426;10.300;2022-10-04T02:22:38;8.57;;;2.20;;
62790;SDS011;48830;53.426;10.300;2022-10-04T02:25:04;4.70;;;2.10;;
62790;SDS011;48830;53.426;10.300;2022-10-04T02:27:31;6.77;;;2.17;;
62790;SDS011;48830;53.426;10.300;2022-10-04T02:30:01;6.28;;;2.30;;
62790;SDS011;48830;53.426;10.300;2022-10-04T02:32:30;4.15;;;1.92;;
62790;SDS011;48830;53.426;10.300;2022-10-04T02:35:15;5.65;;;2.10;;
62790;SDS011;48830;53.426;10.300;2022-10-04T02:37:42;5.45;;;2.00;;
62790;SDS011;48830;53.426;10.300;2022-10-04T02:40:09;8.48;;;2.10;;
62790;SDS011;48830;53.426;10.300;2022-10-04T02:42:43;6.20;;;2.38;;
62790;SDS011;48830;53.426;10.300;2022-10-04T02:48:22;7.30;;;2.40;;
62790;SDS011;48830;53.426;10.300;2022-10-04T02:53:49;6.00;;;2.20;;
62790;SDS011;48830;53.426;10.300;2022-10-04T02:56:30;5.43;;;2.08;;
62790;SDS011;48830;53.426;10.300;2022-10-04T02:59:00;5.47;;;1.80;;
62790;SDS011;48830;53.426;10.300;2022-10-04T03:01:38;4.67;;;1.83;;
62790;SDS011;48830;53.426;10.300;2022-10-04T03:04:11;6.63;;;2.00;;
62790;SDS011;48830;53.426;10.300;2022-10-04T03:06:39;5.33;;;2.47;;
62790;SDS011;48830;53.426;10.300;2022-10-04T03:09:06;6.77;;;2.00;;
62790;SDS011;48830;53.426;10.300;2022-10-04T03:11:35;7.22;;;2.20;;
62790;SDS011;48830;53.426;10.300;2022-10-04T03:14:05;5.60;;;2.28;;
62790;SDS011;48830;53.426;10.300;2022-10-04T03:16:35;7.50;;;2.30;;
62790;SDS011;48830;53.426;10.300;2022-10-04T03:19:03;6.80;;;1.95;;
62790;SDS011;48830;53.426;10.300;2022-10-04T03:21:31;4.22;;;2.15;;
62790;SDS011;48830;53.426;10.300;2022-10-04T03:23:57;5.75;;;2.00;;
62790;SDS011;48830;53.426;10.300;2022-10-04T03:26:29;5.32;;;2.08;;
62790;SDS011;48830;53.426;10.300;2022-10-04T03:28:56;5.85;;;2.15;;
62790;SDS011;48830;53.426;10.300;2022-10-04T03:31:24;10.73;;;2.50;;
62790;SDS011;48830;53.426;10.300;2022-10-04T03:33:53;5.85;;;2.63;;
62790;SDS011;48830;53.426;10.300;2022-10-04T03:36:20;10.20;;;2.63;;
62790;SDS011;48830;53.426;10.300;2022-10-04T03:38:48;8.35;;;2.53;;
62790;SDS011;48830;53.426;10.300;2022-10-04T03:41:17;6.63;;;2.50;;
62790;SDS011;48830;53.426;10.300;2022-10-04T03:43:44;7.70;;;2.40;;
62790;SDS011;48830;53.426;10.300;2022-10-04T03:46:10;5.60;;;2.25;;
62790;SDS011;48830;53.426;10.300;2022-10-04T03:51:23;6.68;;;2.35;;
62790;SDS011;48830;53.426;10.300;2022-10-04T03:53:54;6.50;;;2.38;;
62790;SDS011;48830;53.426;10.300;2022-10-04T03:56:24;6.55;;;2.50;;
62790;SDS011;48830;53.426;10.300;2022-10-04T03:58:52;9.20;;;2.47;;
62790;SDS011;48830;53.426;10.300;2022-10-04T04:03:55;5.78;;;2.40;;
62790;SDS011;48830;53.426;10.300;2022-10-04T04:06:28;6.90;;;2.45;;
62790;SDS011;48830;53.426;10.300;2022-10-04T04:09:04;5.65;;;2.55;;
62790;SDS011;48830;53.426;10.300;2022-10-04T04:11:31;5.70;;;2.20;;
62790;SDS011;48830;53.426;10.300;2022-10-04T04:14:01;6.10;;;2.33;;
62790;SDS011;48830;53.426;10.300;2022-10-04T04:16:32;10.15;;;3.17;;
62790;SDS011;48830;53.426;10.300;2022-10-04T04:19:00;6.10;;;2.88;;
62790;SDS011;48830;53.426;10.300;2022-10-04T04:21:28;8.68;;;3.08;;
62790;SDS011;48830;53.426;10.300;2022-10-04T04:23:57;7.88;;;3.00;;
62790;SDS011;48830;53.426;10.300;2022-10-04T04:29:07;7.85;;;3.00;;
62790;SDS011;48830;53.426;10.300;2022-10-04T04:34:15;6.28;;;3.10;;
62790;SDS011;48830;53.426;10.300;2022-10-04T04:36:44;7.93;;;2.83;;
62790;SDS011;48830;53.426;10.300;2022-10-04T04:39:14;6.32;;;2.80;;
62790;SDS011;48830;53.426;10.300;2022-10-04T04:41:57;6.75;;;2.80;;
62790;SDS011;48830;53.426;10.300;2022-10-04T04:44:24;7.50;;;2.90;;
62790;SDS011;48830;53.426;10.300;2022-10-04T04:46:50;7.80;;;3.30;;
62790;SDS011;48830;53.426;10.300;2022-10-04T04:49:16;7.30;;;2.95;;
62790;SDS011;48830;53.426;10.300;2022-10-04T04:51:47;6.68;;;2.92;;
62790;SDS011;48830;53.426;10.300;2022-10-04T04:54:16;6.03;;;2.53;;
62790;SDS011;48830;53.426;10.300;2022-10-04T04:56:45;5.22;;;2.90;;
62790;SDS011;48830;53.426;10.300;2022-10-04T04:59:14;5.45;;;2.60;;
62790;SDS011;48830;53.426;10.300;2022-10-04T05:01:42;7.40;;;2.78;;
62790;SDS011;48830;53.426;10.300;2022-10-04T05:06:33;7.63;;;2.90;;
62790;SDS011;48830;53.426;10.300;2022-10-04T05:09:01;9.45;;;3.05;;
62790;SDS011;48830;53.426;10.300;2022-10-04T05:11:35;9.30;;;3.30;;
62790;SDS011;48830;53.426;10.300;2022-10-04T05:14:09;5.13;;;2.87;;
62790;SDS011;48830;53.426;10.300;2022-10-04T05:16:45;9.85;;;3.53;;
62790;SDS011;48830;53.426;10.300;2022-10-04T05:19:15;6.78;;;3.22;;
62790;SDS011;48830;53.426;10.300;2022-10-04T05:21:45;6.53;;;2.65;;
62790;SDS011;48830;53.426;10.300;2022-10-04T05:26:37;7.15;;;3.47;;
62790;SDS011;48830;53.426;10.300;2022-10-04T05:29:08;8.68;;;3.13;;
62790;SDS011;48830;53.426;10.300;2022-10-04T05:34:37;6.38;;;2.97;;
62790;SDS011;48830;53.426;10.300;2022-10-04T05:42:44;8.68;;;3.42;;
62790;SDS011;48830;53.426;10.300;2022-10-04T05:45:31;8.55;;;2.90;;
62790;SDS011;48830;53.426;10.300;2022-10-04T05:47:56;7.57;;;3.22;;
62790;SDS011;48830;53.426;10.300;2022-10-04T05:50:28;7.90;;;3.50;;
62790;SDS011;48830;53.426;10.300;2022-10-04T05:53:09;6.82;;;3.25;;
62790;SDS011;48830;53.426;10.300;2022-10-04T06:07:03;7.20;;;3.65;;
62790;SDS011;48830;53.426;10.300;2022-10-04T06:09:44;6.32;;;3.42;;
62790;SDS011;48830;53.426;10.300;2022-10-04T06:15:01;8.38;;;3.50;;
62790;SDS011;48830;53.426;10.300;2022-10-04T06:17:45;9.38;;;3.45;;
62790;SDS011;48830;53.426;10.300;2022-10-04T06:22:57;9.15;;;3.75;;
62790;SDS011;48830;53.426;10.300;2022-10-04T06:25:29;7.68;;;3.50;;
62790;SDS011;48830;53.426;10.300;2022-10-04T06:28:10;7.03;;;3.50;;
62790;SDS011;48830;53.426;10.300;2022-10-04T06:30:46;8.80;;;3.67;;
62790;SDS011;48830;53.426;10.300;2022-10-04T06:33:24;9.02;;;3.95;;
62790;SDS011;48830;53.426;10.300;2022-10-04T06:45:00;9.70;;;4.10;;
62790;SDS011;48830;53.426;10.300;2022-10-04T06:58:43;6.30;;;3.20;;
62790;SDS011;48830;53.426;10.300;2022-10-04T07:01:26;6.72;;;3.55;;
62790;SDS011;48830;53.426;10.300;2022-10-04T07:06:48;8.50;;;3.60;;
62790;SDS011;48830;53.426;10.300;2022-10-04T07:15:30;10.02;;;3.22;;
62790;SDS011;48830;53.426;10.300;2022-10-04T07:18:02;11.10;;;3.50;;
62790;SDS011;48830;53.426;10.300;2022-10-04T07:20:32;9.75;;;3.08;;
62790;SDS011;48830;53.426;10.300;2022-10-04T07:25:56;7.18;;;3.00;;
62790;SDS011;48830;53.426;10.300;2022-10-04T07:28:29;9.57;;;3.30;;
62790;SDS011;48830;53.426;10.300;2022-10-04T07:31:20;9.55;;;3.20;;
62790;SDS011;48830;53.426;10.300;2022-10-04T07:33:58;8.68;;;3.08;;
62790;SDS011;48830;53.426;10.300;2022-10-04T07:36:45;8.95;;;3.13;;
62790;SDS011;48830;53.426;10.300;2022-10-04T07:39:20;9.25;;;2.92;;
62790;SDS011;48830;53.426;10.300;2022-10-04T07:41:55;8.35;;;2.75;;
62790;SDS011;48830;53.426;10.300;2022-10-04T07:44:32;7.25;;;2.75;;
62790;SDS011;48830;53.426;10.300;2022-10-04T07:49:42;9.88;;;3.50;;
62790;SDS011;48830;53.426;10.300;2022-10-04T07:57:48;10.00;;;3.10;;
62790;SDS011;48830;53.426;10.300;2022-10-04T08:00:22;8.25;;;2.85;;
62790;SDS011;48830;53.426;10.300;2022-10-04T08:05:49;5.72;;;2.53;;
62790;SDS011;48830;53.426;10.300;2022-10-04T08:09:02;6.38;;;2.95;;
62790;SDS011;48830;53.426;10.300;2022-10-04T08:14:30;9.70;;;3.22;;
62790;SDS011;48830;53.426;10.300;2022-10-04T08:27:52;9.35;;;3.25;;
62790;SDS011;48830;53.426;10.300;2022-10-04T08:33:45;7.07;;;3.08;;
62790;SDS011;48830;53.426;10.300;2022-10-04T08:36:19;11.57;;;3.63;;
62790;SDS011;48830;53.426;10.300;2022-10-04T08:38:49;10.25;;;3.55;;
62790;SDS011;48830;53.426;10.300;2022-10-04T08:42:08;9.18;;;3.78;;
62790;SDS011;48830;53.426;10.300;2022-10-04T09:07:34;11.93;;;3.92;;
62790;SDS011;48830;53.426;10.300;2022-10-04T09:10:12;12.82;;;3.88;;
62790;SDS011;48830;53.426;10.300;2022-10-04T09:18:26;10.35;;;3.90;;
62790;SDS011;48830;53.426;10.300;2022-10-04T09:20:56;10.45;;;4.13;;
62790;SDS011;48830;53.426;10.300;2022-10-04T09:31:45;13.50;;;4.82;;
62790;SDS011;48830;53.426;10.300;2022-10-04T09:37:29;12.90;;;4.40;;
62790;SDS011;48830;53.426;10.300;2022-10-04T10:19:38;13.73;;;3.70;;
62790;SDS011;48830;53.426;10.300;2022-10-04T10:25:32;13.25;;;4.10;;
62790;SDS011;48830;53.426;10.300;2022-10-04T10:34:13;11.27;;;3.85;;
62790;SDS011;48830;53.426;10.300;2022-10-04T10:42:13;11.23;;;3.42;;
62790;SDS011;48830;53.426;10.300;2022-10-04T10:50:04;14.35;;;3.20;;
62790;SDS011;48830;53.426;10.300;2022-10-04T11:09:33;9.70;;;3.20;;
62790;SDS011;48830;53.426;10.300;2022-10-04T11:41:44;13.30;;;3.60;;
62790;SDS011;48830;53.426;10.300;2022-10-04T12:04:23;10.95;;;3.05;;
62790;SDS011;48830;53.426;10.300;2022-10-04T12:09:49;9.73;;;2.30;;
62790;SDS011;48830;53.426;10.300;2022-10-04T12:31:58;5.82;;;2.45;;
62790;SDS011;48830;53.426;10.300;2022-10-04T12:37:37;8.55;;;2.40;;
62790;SDS011;48830;53.426;10.300;2022-10-04T12:54:10;7.15;;;2.28;;
62790;SDS011;48830;53.426;10.300;2022-10-04T13:02:27;8.07;;;2.25;;
62790;SDS011;48830;53.426;10.300;2022-10-04T13:14:10;7.60;;;2.33;;
62790;SDS011;48830;53.426;10.300;2022-10-04T13:16:25;9.13;;;2.15;;
62790;SDS011;48830;53.426;10.300;2022-10-04T13:19:23;8.50;;;2.58;;
62790;SDS011;48830;53.426;10.300;2022-10-04T13:33:13;7.10;;;1.90;;
62790;SDS011;48830;53.426;10.300;2022-10-04T13:43:58;5.05;;;2.10;;
62790;SDS011;48830;53.426;10.300;2022-10-04T13:49:18;8.00;;;2.70;;
62790;SDS011;48830;53.426;10.300;2022-10-04T13:52:00;5.78;;;1.85;;
62790;SDS011;48830;53.426;10.300;2022-10-04T14:01:00;8.52;;;2.40;;
62790;SDS011;48830;53.426;10.300;2022-10-04T14:03:58;6.25;;;2.20;;
62790;SDS011;48830;53.426;10.300;2022-10-04T14:29:38;7.20;;;2.30;;
62790;SDS011;48830;53.426;10.300;2022-10-04T14:35:02;5.50;;;1.90;;
62790;SDS011;48830;53.426;10.300;2022-10-04T14:37:48;7.30;;;2.10;;
62790;SDS011;48830;53.426;10.300;2022-10-04T14:53:59;5.15;;;2.00;;
62790;SDS011;48830;53.426;10.300;2022-10-04T15:07:45;7.97;;;2.13;;
62790;SDS011;48830;53.426;10.300;2022-10-04T15:10:21;6.68;;;2.30;;
62790;SDS011;48830;53.426;10.300;2022-10-04T15:23:58;4.57;;;1.90;;
62790;SDS011;48830;53.426;10.300;2022-10-04T15:29:30;8.23;;;2.30;;
62790;SDS011;48830;53.426;10.300;2022-10-04T15:35:28;5.60;;;2.10;;
62790;SDS011;48830;53.426;10.300;2022-10-04T15:38:00;6.93;;;2.03;;
62790;SDS011;48830;53.426;10.300;2022-10-04T16:15:37;6.20;;;2.33;;
62790;SDS011;48830;53.426;10.300;2022-10-04T16:23:31;5.28;;;2.13;;
62790;SDS011;48830;53.426;10.300;2022-10-04T16:25:59;6.30;;;2.25;;
62790;SDS011;48830;53.426;10.300;2022-10-04T16:31:20;5.53;;;2.17;;
62790;SDS011;48830;53.426;10.300;2022-10-04T16:50:12;6.30;;;2.65;;
62790;SDS011;48830;53.426;10.300;2022-10-04T16:53:16;4.93;;;2.30;;
62790;SDS011;48830;53.426;10.300;2022-10-04T16:55:56;6.80;;;2.50;;
62790;SDS011;48830;53.426;10.300;2022-10-04T17:06:47;7.70;;;2.72;;
62790;SDS011;48830;53.426;10.300;2022-10-04T17:09:28;14.45;;;4.60;;
62790;SDS011;48830;53.426;10.300;2022-10-04T17:25:42;8.27;;;3.50;;
62790;SDS011;48830;53.426;10.300;2022-10-04T17:30:45;11.82;;;3.28;;
62790;SDS011;48830;53.426;10.300;2022-10-04T17:33:28;7.78;;;2.75;;
62790;SDS011;48830;53.426;10.300;2022-10-04T17:44:38;8.35;;;3.28;;
62790;SDS011;48830;53.426;10.300;2022-10-04T17:47:41;7.78;;;3.13;;
62790;SDS011;48830;53.426;10.300;2022-10-04T17:50:37;6.82;;;2.90;;
62790;SDS011;48830;53.426;10.300;2022-10-04T17:53:32;6.82;;;2.90;;
62790;SDS011;48830;53.426;10.300;2022-10-04T17:56:26;8.10;;;3.20;;
62790;SDS011;48830;53.426;10.300;2022-10-04T17:59:04;5.60;;;2.78;;
62790;SDS011;48830;53.426;10.300;2022-10-04T18:01:37;6.65;;;3.28;;
62790;SDS011;48830;53.426;10.300;2022-10-04T18:04:13;6.40;;;2.90;;
62790;SDS011;48830;53.426;10.300;2022-10-04T18:09:34;10.27;;;3.10;;
62790;SDS011;48830;53.426;10.300;2022-10-04T18:12:11;9.05;;;3.00;;
62790;SDS011;48830;53.426;10.300;2022-10-04T18:17:47;10.30;;;3.08;;
62790;SDS011;48830;53.426;10.300;2022-10-04T18:22:49;7.85;;;3.13;;
62790;SDS011;48830;53.426;10.300;2022-10-04T18:25:21;7.72;;;3.13;;
62790;SDS011;48830;53.426;10.300;2022-10-04T18:30:31;4.78;;;2.90;;
62790;SDS011;48830;53.426;10.300;2022-10-04T18:33:18;7.72;;;3.70;;
62790;SDS011;48830;53.426;10.300;2022-10-04T18:38:35;11.65;;;4.68;;
62790;SDS011;48830;53.426;10.300;2022-10-04T18:41:02;8.95;;;4.10;;
62790;SDS011;48830;53.426;10.300;2022-10-04T18:43:40;11.00;;;4.63;;
62790;SDS011;48830;53.426;10.300;2022-10-04T18:46:17;11.73;;;6.25;;
62790;SDS011;48830;53.426;10.300;2022-10-04T18:51:37;15.30;;;9.27;;
62790;SDS011;48830;53.426;10.300;2022-10-04T19:00:00;17.50;;;9.88;;
62790;SDS011;48830;53.426;10.300;2022-10-04T19:02:56;17.15;;;8.70;;
62790;SDS011;48830;53.426;10.300;2022-10-04T19:25:38;11.70;;;5.93;;
62790;SDS011;48830;53.426;10.300;2022-10-04T19:28:23;11.40;;;5.95;;
62790;SDS011;48830;53.426;10.300;2022-10-04T19:33:54;12.38;;;6.70;;
62790;SDS011;48830;53.426;10.300;2022-10-04T19:52:39;16.17;;;8.32;;
62790;SDS011;48830;53.426;10.300;2022-10-04T19:55:47;16.45;;;6.93;;
62790;SDS011;48830;53.426;10.300;2022-10-04T20:01:01;13.05;;;6.13;;
62790;SDS011;48830;53.426;10.300;2022-10-04T20:03:32;13.30;;;6.22;;
62790;SDS011;48830;53.426;10.300;2022-10-04T20:05:58;11.65;;;5.70;;
62790;SDS011;48830;53.426;10.300;2022-10-04T20:17:00;10.65;;;5.55;;
62790;SDS011;48830;53.426;10.300;2022-10-04T20:35:10;11.07;;;6.25;;
62790;SDS011;48830;53.426;10.300;2022-10-04T20:40:08;8.77;;;5.32;;
62790;SDS011;48830;53.426;10.300;2022-10-04T20:42:35;10.52;;;5.85;;
62790;SDS011;48830;53.426;10.300;2022-10-04T20:50:29;9.35;;;5.60;;
62790;SDS011;48830;53.426;10.300;2022-10-04T20:53:00;10.38;;;5.72;;
62790;SDS011;48830;53.426;10.300;2022-10-04T20:55:37;11.25;;;5.07;;
62790;SDS011;48830;53.426;10.300;2022-10-04T21:01:42;9.95;;;5.30;;
62790;SDS011;48830;53.426;10.300;2022-10-04T21:04:31;10.32;;;5.47;;
62790;SDS011;48830;53.426;10.300;2022-10-04T21:06:57;12.13;;;5.35;;
62790;SDS011;48830;53.426;10.300;2022-10-04T21:09:26;9.52;;;5.75;;
62790;SDS011;48830;53.426;10.300;2022-10-04T21:11:53;10.80;;;5.60;;
62790;SDS011;48830;53.426;10.300;2022-10-04T21:14:27;8.35;;;5.20;;
62790;SDS011;48830;53.426;10.300;2022-10-04T21:16:58;8.90;;;5.10;;
62790;SDS011;48830;53.426;10.300;2022-10-04T21:24:52;9.18;;;5.25;;
62790;SDS011;48830;53.426;10.300;2022-10-04T21:27:35;9.02;;;5.25;;
62790;SDS011;48830;53.426;10.300;2022-10-04T21:30:06;10.98;;;5.60;;
62790;SDS011;48830;53.426;10.300;2022-10-04T21:32:37;9.13;;;5.18;;
62790;SDS011;48830;53.426;10.300;2022-10-04T21:35:03;8.65;;;5.30;;
62790;SDS011;48830;53.426;10.300;2022-10-04T21:37:30;10.98;;;5.35;;
62790;SDS011;48830;53.426;10.300;2022-10-04T21:39:55;9.80;;;5.13;;
62790;SDS011;48830;53.426;10.300;2022-10-04T21:42:21;12.38;;;5.68;;
62790;SDS011;48830;53.426;10.300;2022-10-04T21:44:46;11.88;;;5.68;;
62790;SDS011;48830;53.426;10.300;2022-10-04T21:47:12;10.55;;;5.35;;
62790;SDS011;48830;53.426;10.300;2022-10-04T21:49:38;10.02;;;5.32;;
62790;SDS011;48830;53.426;10.300;2022-10-04T21:52:04;9.77;;;5.45;;
62790;SDS011;48830;53.426;10.300;2022-10-04T21:54:29;10.40;;;5.53;;
62790;SDS011;48830;53.426;10.300;2022-10-04T21:56:55;8.73;;;5.25;;
62790;SDS011;48830;53.426;10.300;2022-10-04T21:59:21;10.43;;;4.97;;
62790;SDS011;48830;53.426;10.300;2022-10-04T22:01:46;10.32;;;5.00;;
62790;SDS011;48830;53.426;10.300;2022-10-04T22:04:11;10.15;;;5.38;;
62790;SDS011;48830;53.426;10.300;2022-10-04T22:06:37;9.48;;;5.30;;
62790;SDS011;48830;53.426;10.300;2022-10-04T22:09:03;10.90;;;5.40;;
62790;SDS011;48830;53.426;10.300;2022-10-04T22:11:28;8.75;;;4.85;;
62790;SDS011;48830;53.426;10.300;2022-10-04T22:13:54;11.50;;;5.22;;
62790;SDS011;48830;53.426;10.300;2022-10-04T22:16:19;8.23;;;5.00;;
62790;SDS011;48830;53.426;10.300;2022-10-04T22:18:44;8.18;;;5.22;;
62790;SDS011;48830;53.426;10.300;2022-10-04T22:21:10;11.23;;;5.75;;
62790;SDS011;48830;53.426;10.300;2022-10-04T22:23:39;8.27;;;5.10;;
62790;SDS011;48830;53.426;10.300;2022-10-04T22:26:13;7.90;;;4.93;;
62790;SDS011;48830;53.426;10.300;2022-10-04T22:28:42;11.57;;;5.28;;
62790;SDS011;48830;53.426;10.300;2022-10-04T22:31:16;10.55;;;5.47;;
62790;SDS011;48830;53.426;10.300;2022-10-04T22:33:44;10.38;;;5.63;;
62790;SDS011;48830;53.426;10.300;2022-10-04T22:38:50;10.40;;;5.30;;
62790;SDS011;48830;53.426;10.300;2022-10-04T22:41:24;9.68;;;5.78;;
62790;SDS011;48830;53.426;10.300;2022-10-04T22:43:54;9.93;;;6.18;;
62790;SDS011;48830;53.426;10.300;2022-10-04T22:46:21;9.98;;;5.85;;
62790;SDS011;48830;53.426;10.300;2022-10-04T22:48:49;11.93;;;6.03;;
62790;SDS011;48830;53.426;10.300;2022-10-04T22:51:14;10.98;;;5.68;;
62790;SDS011;48830;53.426;10.300;2022-10-04T22:53:40;11.18;;;5.47;;
62790;SDS011;48830;53.426;10.300;2022-10-04T22:56:08;14.77;;;5.78;;
62790;SDS011;48830;53.426;10.300;2022-10-04T22:58:33;9.52;;;6.15;;
62790;SDS011;48830;53.426;10.300;2022-10-04T23:00:59;10.30;;;5.32;;
62790;SDS011;48830;53.426;10.300;2022-10-04T23:03:31;9.77;;;5.65;;
62790;SDS011;48830;53.426;10.300;2022-10-04T23:05:58;10.35;;;5.40;;
62790;SDS011;48830;53.426;10.300;2022-10-04T23:08:25;12.32;;;6.13;;
62790;SDS011;48830;53.426;10.300;2022-10-04T23:10:54;10.10;;;5.97;;
62790;SDS011;48830;53.426;10.300;2022-10-04T23:13:22;12.63;;;6.15;;
62790;SDS011;48830;53.426;10.300;2022-10-04T23:15:48;11.88;;;5.80;;
62790;SDS011;48830;53.426;10.300;2022-10-04T23:18:15;11.05;;;5.72;;
62790;SDS011;48830;53.426;10.300;2022-10-04T23:20:42;9.60;;;5.50;;
62790;SDS011;48830;53.426;10.300;2022-10-04T23:23:09;9.55;;;5.82;;
62790;SDS011;48830;53.426;10.300;2022-10-04T23:25:41;10.23;;;5.78;;
62790;SDS011;48830;53.426;10.300;2022-10-04T23:28:13;10.68;;;5.90;;
62790;SDS011;48830;53.426;10.300;2022-10-04T23:30:40;11.65;;;5.95;;
62790;SDS011;48830;53.426;10.300;2022-10-04T23:33:19;11.38;;;6.07;;
62790;SDS011;48830;53.426;10.300;2022-10-04T23:35:46;10.52;;;6.20;;
62790;SDS011;48830;53.426;10.300;2022-10-04T23:38:13;11.13;;;5.60;;
62790;SDS011;48830;53.426;10.300;2022-10-04T23:40:41;7.63;;;5.25;;
62790;SDS011;48830;53.426;10.300;2022-10-04T23:43:07;10.68;;;5.35;;
62790;SDS011;48830;53.426;10.300;2022-10-04T23:45:40;10.75;;;5.68;;
62790;SDS011;48830;53.426;10.300;2022-10-04T23:48:08;10.50;;;5.85;;
62790;SDS011;48830;53.426;10.300;2022-10-04T23:50:36;11.52;;;5.72;;
62790;SDS011;48830;53.426;10.300;2022-10-04T23:53:04;10.85;;;5.68;;
62790;SDS011;48830;53.426;10.300;2022-10-04T23:55:35;10.30;;;6.30;;
62790;SDS011;48830;53.426;10.300;2022-10-04T23:58:14;12.65;;;5.78;;
